SFR571 HTZA-FAOR
Flight info
| Callsign | SFR571 |
|---|---|
| Flight time | 3h 13m |
| Altitude | 34000 |
| Route | DV UL437 DVL UM315 USUBI/N0453F360 UR409 VMV UP312 GWV UZ11 NESAG UZ7 OKPIT OKPIT1C |
| Aircraft | B738/M-SDE2E3FGHIRWXY/LB1 |
Departure
| Time | 2026-05-09 18:46 |
|---|---|
| Airport | Abeid Amani Karume International Airport (HTZA) |
Arrival
| Time | 2026-05-09 21:59 |
|---|---|
| Airport | O.R. Tambo International Airport (FAOR) |
| Time | Latitude | Longitude | Altitude | Speed | Heading |
|---|---|---|---|---|---|
| 2026-05-09 18:20 | -6.22316 | 39.22263 | 62 ft | 0 kts | 264° |
| 2026-05-09 18:31 | -6.22315 | 39.22271 | 62 ft | 2 kts | 262° |
| 2026-05-09 18:31 | -6.22313 | 39.22287 | 62 ft | 2 kts | 255° |
| 2026-05-09 18:31 | -6.22308 | 39.22302 | 62 ft | 2 kts | 244° |
| 2026-05-09 18:31 | -6.22300 | 39.22315 | 62 ft | 2 kts | 225° |
| 2026-05-09 18:32 | -6.22289 | 39.22324 | 62 ft | 2 kts | 193° |
| 2026-05-09 18:32 | -6.22274 | 39.22325 | 62 ft | 2 kts | 174° |
| 2026-05-09 18:32 | -6.22259 | 39.22323 | 62 ft | 2 kts | 174° |
| 2026-05-09 18:32 | -6.22253 | 39.22322 | 62 ft | 0 kts | 174° |
| 2026-05-09 18:37 | -6.22262 | 39.22323 | 62 ft | 3 kts | 174° |
| 2026-05-09 18:37 | -6.22288 | 39.22326 | 62 ft | 5 kts | 174° |
| 2026-05-09 18:37 | -6.22305 | 39.22346 | 62 ft | 4 kts | 93° |
| 2026-05-09 18:37 | -6.22302 | 39.22379 | 62 ft | 5 kts | 87° |
| 2026-05-09 18:38 | -6.22299 | 39.22421 | 62 ft | 7 kts | 85° |
| 2026-05-09 18:38 | -6.22296 | 39.22454 | 62 ft | 5 kts | 85° |
| 2026-05-09 18:38 | -6.22284 | 39.22486 | 62 ft | 5 kts | 54° |
| 2026-05-09 18:40 | -6.21863 | 39.22451 | 62 ft | 13 kts | 354° |
| 2026-05-09 18:40 | -6.21773 | 39.22443 | 62 ft | 13 kts | 354° |
| 2026-05-09 18:40 | -6.21678 | 39.22433 | 62 ft | 14 kts | 354° |
| 2026-05-09 18:41 | -6.21582 | 39.22424 | 62 ft | 12 kts | 354° |
| 2026-05-09 18:41 | -6.21494 | 39.22415 | 62 ft | 13 kts | 354° |
| 2026-05-09 18:41 | -6.21415 | 39.22407 | 62 ft | 10 kts | 354° |
| 2026-05-09 18:41 | -6.21345 | 39.22399 | 62 ft | 11 kts | 354° |
| 2026-05-09 18:42 | -6.21267 | 39.22391 | 62 ft | 12 kts | 354° |
| 2026-05-09 18:42 | -6.21211 | 39.22385 | 62 ft | 7 kts | 354° |
| 2026-05-09 18:42 | -6.21186 | 39.22377 | 62 ft | 4 kts | 329° |
| 2026-05-09 18:42 | -6.21158 | 39.22357 | 62 ft | 3 kts | 322° |
| 2026-05-09 18:43 | -6.21137 | 39.22344 | 62 ft | 4 kts | 344° |
| 2026-05-09 18:43 | -6.21107 | 39.22347 | 62 ft | 5 kts | 40° |
| 2026-05-09 18:43 | -6.21106 | 39.22372 | 62 ft | 4 kts | 134° |
| 2026-05-09 18:43 | -6.21125 | 39.22379 | 62 ft | 0 kts | 180° |
| 2026-05-09 18:44 | -6.21135 | 39.22379 | 62 ft | 2 kts | 180° |
| 2026-05-09 18:44 | -6.21152 | 39.22380 | 62 ft | 0 kts | 175° |
| 2026-05-09 18:44 | -6.21159 | 39.22380 | 62 ft | 6 kts | 175° |
| 2026-05-09 18:45 | -6.21342 | 39.22398 | 62 ft | 55 kts | 175° |
| 2026-05-09 18:45 | -6.21923 | 39.22459 | 62 ft | 112 kts | 174° |
| 2026-05-09 18:45 | -6.22872 | 39.22554 | 63 ft | 161 kts | 174° |
| 2026-05-09 18:45 | -6.24083 | 39.22667 | 383 ft | 180 kts | 174° |
| 2026-05-09 18:46 | -6.25343 | 39.22766 | 1105 ft | 180 kts | 177° |
| 2026-05-09 18:46 | -6.26586 | 39.22694 | 1857 ft | 181 kts | 184° |
| 2026-05-09 18:46 | -6.27847 | 39.22534 | 2430 ft | 188 kts | 181° |
| 2026-05-09 18:46 | -6.29168 | 39.22395 | 3057 ft | 195 kts | 180° |
| 2026-05-09 18:47 | -6.30591 | 39.22314 | 3422 ft | 216 kts | 179° |
| 2026-05-09 18:47 | -6.32163 | 39.22250 | 3774 ft | 235 kts | 180° |
| 2026-05-09 18:47 | -6.33830 | 39.22181 | 4371 ft | 245 kts | 180° |
| 2026-05-09 18:47 | -6.35586 | 39.22103 | 4930 ft | 259 kts | 180° |
| 2026-05-09 18:48 | -6.37408 | 39.22019 | 5631 ft | 265 kts | 181° |
| 2026-05-09 18:48 | -6.39271 | 39.21930 | 6394 ft | 269 kts | 181° |
| 2026-05-09 18:48 | -6.41157 | 39.21839 | 7144 ft | 273 kts | 181° |
| 2026-05-09 18:48 | -6.43066 | 39.21743 | 7932 ft | 275 kts | 181° |
| 2026-05-09 18:49 | -6.44963 | 39.21646 | 8674 ft | 278 kts | 181° |
| 2026-05-09 18:49 | -6.46912 | 39.21546 | 9363 ft | 283 kts | 182° |
| 2026-05-09 18:49 | -6.48889 | 39.21443 | 10119 ft | 285 kts | 182° |
| 2026-05-09 18:49 | -6.50890 | 39.21338 | 10766 ft | 292 kts | 182° |
| 2026-05-09 18:50 | -6.52978 | 39.21228 | 11118 ft | 309 kts | 182° |
| 2026-05-09 18:50 | -6.55184 | 39.21110 | 11396 ft | 326 kts | 182° |
| 2026-05-09 18:50 | -6.56711 | 39.21029 | 11576 ft | 337 kts | 182° |
| 2026-05-09 18:50 | -6.59909 | 39.20858 | 12157 ft | 349 kts | 182° |
| 2026-05-09 18:51 | -6.61525 | 39.20772 | 12554 ft | 351 kts | 182° |
| 2026-05-09 18:51 | -6.63980 | 39.20641 | 13150 ft | 355 kts | 182° |
| 2026-05-09 18:51 | -6.66464 | 39.20506 | 13735 ft | 358 kts | 182° |
| 2026-05-09 18:51 | -6.68960 | 39.20372 | 14290 ft | 361 kts | 182° |
| 2026-05-09 18:52 | -6.71483 | 39.20235 | 14823 ft | 365 kts | 182° |
| 2026-05-09 18:52 | -6.74875 | 39.20052 | 15480 ft | 370 kts | 183° |
| 2026-05-09 18:52 | -6.76584 | 39.19960 | 15833 ft | 371 kts | 182° |
| 2026-05-09 18:52 | -6.80023 | 39.19775 | 16464 ft | 376 kts | 182° |
| 2026-05-09 18:53 | -6.81796 | 39.19678 | 16770 ft | 378 kts | 182° |
| 2026-05-09 18:53 | -6.84409 | 39.19537 | 17161 ft | 383 kts | 183° |
| 2026-05-09 18:53 | -6.87055 | 39.19180 | 17629 ft | 386 kts | 193° |
| 2026-05-09 18:53 | -6.89589 | 39.18242 | 18040 ft | 390 kts | 206° |
| 2026-05-09 18:54 | -6.91923 | 39.16820 | 18409 ft | 395 kts | 213° |
| 2026-05-09 18:54 | -6.94183 | 39.15214 | 18847 ft | 397 kts | 215° |
| 2026-05-09 18:54 | -6.96407 | 39.13542 | 19229 ft | 400 kts | 216° |
| 2026-05-09 18:54 | -6.98610 | 39.11870 | 19615 ft | 403 kts | 216° |
| 2026-05-09 18:55 | -7.00859 | 39.10163 | 20002 ft | 405 kts | 216° |
| 2026-05-09 18:55 | -7.03118 | 39.08447 | 20374 ft | 407 kts | 216° |
| 2026-05-09 18:55 | -7.05394 | 39.06719 | 20735 ft | 410 kts | 216° |
| 2026-05-09 18:55 | -7.07684 | 39.04979 | 21086 ft | 412 kts | 216° |
| 2026-05-09 18:56 | -7.09978 | 39.03236 | 21427 ft | 414 kts | 216° |
| 2026-05-09 18:56 | -7.12259 | 39.01503 | 21754 ft | 417 kts | 216° |
| 2026-05-09 18:56 | -7.14584 | 38.99737 | 22074 ft | 419 kts | 216° |
| 2026-05-09 18:56 | -7.16919 | 38.97964 | 22387 ft | 421 kts | 216° |
| 2026-05-09 18:57 | -7.19277 | 38.96175 | 22692 ft | 423 kts | 216° |
| 2026-05-09 18:57 | -7.21608 | 38.94405 | 22983 ft | 426 kts | 215° |
| 2026-05-09 18:57 | -7.23985 | 38.92600 | 23269 ft | 428 kts | 215° |
| 2026-05-09 18:57 | -7.26373 | 38.90786 | 23549 ft | 430 kts | 215° |
| 2026-05-09 18:58 | -7.28764 | 38.88970 | 23818 ft | 432 kts | 215° |
| 2026-05-09 18:58 | -7.31169 | 38.87142 | 24044 ft | 435 kts | 216° |
| 2026-05-09 18:58 | -7.33594 | 38.85299 | 24304 ft | 437 kts | 216° |
| 2026-05-09 18:58 | -7.36029 | 38.83447 | 24552 ft | 439 kts | 216° |
| 2026-05-09 18:59 | -7.38470 | 38.81592 | 24797 ft | 441 kts | 216° |
| 2026-05-09 18:59 | -7.40902 | 38.79739 | 25267 ft | 437 kts | 215° |
| 2026-05-09 18:59 | -7.43343 | 38.77883 | 25353 ft | 442 kts | 215° |
| 2026-05-09 18:59 | -7.45814 | 38.76007 | 25490 ft | 446 kts | 215° |
| 2026-05-09 19:00 | -7.48273 | 38.74135 | 25734 ft | 448 kts | 215° |
| 2026-05-09 19:00 | -7.53270 | 38.70332 | 26084 ft | 453 kts | 215° |
| 2026-05-09 19:00 | -7.55799 | 38.68407 | 26269 ft | 456 kts | 215° |
| 2026-05-09 19:01 | -7.58334 | 38.66477 | 26512 ft | 456 kts | 215° |
| 2026-05-09 19:01 | -7.60875 | 38.64542 | 26732 ft | 458 kts | 215° |
| 2026-05-09 19:01 | -7.63390 | 38.62627 | 26942 ft | 459 kts | 215° |
| 2026-05-09 19:01 | -7.65949 | 38.60678 | 27152 ft | 460 kts | 215° |
| 2026-05-09 19:02 | -7.68513 | 38.58725 | 27358 ft | 462 kts | 215° |
| 2026-05-09 19:02 | -7.71078 | 38.56770 | 27559 ft | 463 kts | 215° |
| 2026-05-09 19:02 | -7.73653 | 38.54808 | 27757 ft | 464 kts | 215° |
| 2026-05-09 19:02 | -7.76239 | 38.52837 | 27951 ft | 465 kts | 215° |
| 2026-05-09 19:03 | -7.78826 | 38.50867 | 28172 ft | 466 kts | 216° |
| 2026-05-09 19:03 | -7.81416 | 38.48891 | 28350 ft | 467 kts | 216° |
| 2026-05-09 19:03 | -7.84011 | 38.46912 | 28526 ft | 468 kts | 216° |
| 2026-05-09 19:03 | -7.86583 | 38.44949 | 28697 ft | 470 kts | 216° |
| 2026-05-09 19:04 | -7.89200 | 38.42953 | 28861 ft | 471 kts | 216° |
| 2026-05-09 19:04 | -7.91817 | 38.40956 | 29051 ft | 471 kts | 216° |
| 2026-05-09 19:04 | -7.94434 | 38.38960 | 29307 ft | 470 kts | 216° |
| 2026-05-09 19:04 | -7.97051 | 38.36963 | 29552 ft | 470 kts | 216° |
| 2026-05-09 19:05 | -7.99659 | 38.34974 | 29791 ft | 469 kts | 216° |
| 2026-05-09 19:05 | -8.02236 | 38.33007 | 30030 ft | 469 kts | 216° |
| 2026-05-09 19:05 | -8.04842 | 38.31017 | 30275 ft | 468 kts | 216° |
| 2026-05-09 19:05 | -8.07441 | 38.29031 | 30520 ft | 468 kts | 216° |
| 2026-05-09 19:06 | -8.10030 | 38.27052 | 30768 ft | 467 kts | 216° |
| 2026-05-09 19:06 | -8.12621 | 38.25072 | 31016 ft | 466 kts | 216° |
| 2026-05-09 19:06 | -8.15209 | 38.23096 | 31247 ft | 466 kts | 216° |
| 2026-05-09 19:06 | -8.17765 | 38.21140 | 31443 ft | 467 kts | 216° |
| 2026-05-09 19:07 | -8.20360 | 38.19158 | 31610 ft | 468 kts | 217° |
| 2026-05-09 19:07 | -8.22952 | 38.17175 | 31933 ft | 466 kts | 217° |
| 2026-05-09 19:07 | -8.25542 | 38.15198 | 32110 ft | 467 kts | 216° |
| 2026-05-09 19:07 | -8.28145 | 38.13210 | 32354 ft | 466 kts | 216° |
| 2026-05-09 19:08 | -8.30728 | 38.11236 | 32673 ft | 464 kts | 216° |
| 2026-05-09 19:08 | -8.33298 | 38.09271 | 32928 ft | 463 kts | 216° |
| 2026-05-09 19:08 | -8.35839 | 38.07327 | 33149 ft | 463 kts | 216° |
| 2026-05-09 19:08 | -8.38406 | 38.05363 | 33384 ft | 463 kts | 216° |
| 2026-05-09 19:09 | -8.40974 | 38.03398 | 33618 ft | 462 kts | 216° |
| 2026-05-09 19:09 | -8.43535 | 38.01438 | 33848 ft | 462 kts | 216° |
| 2026-05-09 19:09 | -8.46109 | 37.99467 | 33981 ft | 463 kts | 216° |
| 2026-05-09 19:09 | -8.48651 | 37.97520 | 33987 ft | 463 kts | 216° |
| 2026-05-09 19:10 | -8.53785 | 37.93593 | 33994 ft | 461 kts | 216° |
| 2026-05-09 19:10 | -8.58903 | 37.89676 | 33994 ft | 461 kts | 216° |
| 2026-05-09 19:11 | -8.64001 | 37.85772 | 33994 ft | 461 kts | 216° |
| 2026-05-09 19:11 | -8.69120 | 37.81849 | 33994 ft | 461 kts | 216° |
| 2026-05-09 19:12 | -8.74240 | 37.77925 | 33994 ft | 461 kts | 216° |
| 2026-05-09 19:12 | -8.79315 | 37.74033 | 33994 ft | 461 kts | 217° |
| 2026-05-09 19:13 | -8.84449 | 37.70094 | 33994 ft | 464 kts | 217° |
| 2026-05-09 19:13 | -8.89426 | 37.66275 | 33994 ft | 464 kts | 217° |
| 2026-05-09 19:14 | -8.94571 | 37.62325 | 33999 ft | 458 kts | 217° |
| 2026-05-09 19:14 | -8.99566 | 37.58489 | 33983 ft | 451 kts | 217° |
| 2026-05-09 19:15 | -9.04621 | 37.54604 | 33994 ft | 459 kts | 217° |
| 2026-05-09 19:15 | -9.09756 | 37.50658 | 33994 ft | 465 kts | 217° |
| 2026-05-09 19:16 | -9.14907 | 37.46698 | 33993 ft | 464 kts | 217° |
| 2026-05-09 19:16 | -9.20019 | 37.42766 | 33994 ft | 464 kts | 217° |
| 2026-05-09 19:17 | -9.25157 | 37.38813 | 33994 ft | 464 kts | 217° |
| 2026-05-09 19:17 | -9.30301 | 37.34854 | 33994 ft | 464 kts | 217° |
| 2026-05-09 19:18 | -9.35445 | 37.30893 | 33994 ft | 464 kts | 217° |
| 2026-05-09 19:18 | -9.40557 | 37.26955 | 33994 ft | 464 kts | 217° |
| 2026-05-09 19:19 | -9.45698 | 37.22993 | 33993 ft | 464 kts | 217° |
| 2026-05-09 19:19 | -9.50853 | 37.19019 | 33994 ft | 465 kts | 218° |
| 2026-05-09 19:20 | -9.55973 | 37.15070 | 33994 ft | 464 kts | 218° |
| 2026-05-09 19:20 | -9.61125 | 37.11096 | 33994 ft | 464 kts | 218° |
| 2026-05-09 19:21 | -9.65397 | 37.07799 | 33994 ft | 464 kts | 218° |
| 2026-05-09 19:21 | -9.71404 | 37.03161 | 33994 ft | 464 kts | 218° |
| 2026-05-09 19:22 | -9.76513 | 36.99214 | 33993 ft | 464 kts | 218° |
| 2026-05-09 19:22 | -9.81672 | 36.95228 | 33994 ft | 467 kts | 217° |
| 2026-05-09 19:23 | -9.86845 | 36.91228 | 33994 ft | 466 kts | 217° |
| 2026-05-09 19:23 | -9.92007 | 36.87237 | 33994 ft | 466 kts | 217° |
| 2026-05-09 19:24 | -9.97184 | 36.83232 | 33994 ft | 467 kts | 217° |
| 2026-05-09 19:24 | -10.02356 | 36.79229 | 33994 ft | 467 kts | 217° |
| 2026-05-09 19:25 | -10.07503 | 36.75243 | 33994 ft | 467 kts | 217° |
| 2026-05-09 19:25 | -10.12668 | 36.71243 | 33994 ft | 465 kts | 217° |
| 2026-05-09 19:26 | -10.17751 | 36.67304 | 33994 ft | 461 kts | 217° |
| 2026-05-09 19:26 | -10.22844 | 36.63355 | 33994 ft | 459 kts | 217° |
| 2026-05-09 19:27 | -10.27911 | 36.59425 | 33994 ft | 457 kts | 217° |
| 2026-05-09 19:27 | -10.32968 | 36.55502 | 33994 ft | 456 kts | 217° |
| 2026-05-09 19:28 | -10.38010 | 36.51589 | 33994 ft | 456 kts | 217° |
| 2026-05-09 19:28 | -10.43022 | 36.47697 | 33994 ft | 456 kts | 217° |
| 2026-05-09 19:29 | -10.48067 | 36.43778 | 33994 ft | 457 kts | 217° |
| 2026-05-09 19:29 | -10.53125 | 36.39847 | 33994 ft | 458 kts | 217° |
| 2026-05-09 19:30 | -10.58173 | 36.35920 | 33994 ft | 455 kts | 217° |
| 2026-05-09 19:30 | -10.63193 | 36.32016 | 33994 ft | 456 kts | 217° |
| 2026-05-09 19:31 | -10.68237 | 36.28091 | 33994 ft | 456 kts | 217° |
| 2026-05-09 19:31 | -10.73248 | 36.24189 | 33994 ft | 456 kts | 217° |
| 2026-05-09 19:32 | -10.78287 | 36.20266 | 33994 ft | 456 kts | 217° |
| 2026-05-09 19:32 | -10.83338 | 36.16330 | 33994 ft | 456 kts | 217° |
| 2026-05-09 19:33 | -10.88367 | 36.12409 | 33994 ft | 456 kts | 217° |
| 2026-05-09 19:33 | -10.93376 | 36.08502 | 33994 ft | 456 kts | 217° |
| 2026-05-09 19:34 | -10.98420 | 36.04567 | 33994 ft | 456 kts | 218° |
| 2026-05-09 19:34 | -11.03456 | 36.00636 | 33994 ft | 456 kts | 218° |
| 2026-05-09 19:35 | -11.08475 | 35.96717 | 33994 ft | 457 kts | 218° |
| 2026-05-09 19:35 | -11.13526 | 35.92770 | 33994 ft | 458 kts | 218° |
| 2026-05-09 19:36 | -11.18586 | 35.88815 | 33994 ft | 457 kts | 218° |
| 2026-05-09 19:36 | -11.23637 | 35.84865 | 33994 ft | 457 kts | 218° |
| 2026-05-09 19:37 | -11.28671 | 35.80927 | 33994 ft | 458 kts | 218° |
| 2026-05-09 19:37 | -11.33744 | 35.76956 | 33994 ft | 460 kts | 218° |
| 2026-05-09 19:38 | -11.38792 | 35.73007 | 33994 ft | 459 kts | 218° |
| 2026-05-09 19:38 | -11.43855 | 35.69042 | 33994 ft | 457 kts | 218° |
| 2026-05-09 19:39 | -11.48906 | 35.65080 | 33994 ft | 458 kts | 218° |
| 2026-05-09 19:39 | -11.53959 | 35.61115 | 33994 ft | 457 kts | 218° |
| 2026-05-09 19:40 | -11.58977 | 35.57178 | 33994 ft | 457 kts | 218° |
| 2026-05-09 19:40 | -11.64004 | 35.53186 | 33994 ft | 457 kts | 218° |
| 2026-05-09 19:41 | -11.68988 | 35.49202 | 33994 ft | 457 kts | 218° |
| 2026-05-09 19:41 | -11.74011 | 35.45183 | 33994 ft | 457 kts | 218° |
| 2026-05-09 19:42 | -11.78997 | 35.41190 | 33996 ft | 458 kts | 218° |
| 2026-05-09 19:42 | -11.84026 | 35.37162 | 33994 ft | 459 kts | 218° |
| 2026-05-09 19:43 | -11.89058 | 35.33132 | 33994 ft | 460 kts | 218° |
| 2026-05-09 19:43 | -11.94098 | 35.29098 | 33994 ft | 460 kts | 218° |
| 2026-05-09 19:44 | -11.99100 | 35.25090 | 33997 ft | 456 kts | 218° |
| 2026-05-09 19:44 | -12.04063 | 35.21110 | 33989 ft | 453 kts | 218° |
| 2026-05-09 19:45 | -12.09025 | 35.17129 | 33995 ft | 459 kts | 218° |
| 2026-05-09 19:45 | -12.14068 | 35.13080 | 33994 ft | 460 kts | 218° |
| 2026-05-09 19:46 | -12.19104 | 35.09034 | 33994 ft | 459 kts | 218° |
| 2026-05-09 19:46 | -12.24123 | 35.05001 | 33994 ft | 459 kts | 218° |
| 2026-05-09 19:47 | -12.29114 | 35.00987 | 33995 ft | 459 kts | 218° |
| 2026-05-09 19:47 | -12.33291 | 34.97626 | 33994 ft | 459 kts | 219° |
| 2026-05-09 19:48 | -12.39145 | 34.92919 | 33994 ft | 456 kts | 219° |
| 2026-05-09 19:48 | -12.43286 | 34.89585 | 33994 ft | 454 kts | 219° |
| 2026-05-09 19:49 | -12.48253 | 34.85580 | 33994 ft | 455 kts | 219° |
| 2026-05-09 19:49 | -12.54040 | 34.80912 | 33994 ft | 455 kts | 219° |
| 2026-05-09 19:50 | -12.58180 | 34.77572 | 33994 ft | 454 kts | 219° |
| 2026-05-09 19:50 | -12.63197 | 34.73612 | 33994 ft | 455 kts | 217° |
| 2026-05-09 19:51 | -12.68218 | 34.69759 | 33994 ft | 452 kts | 218° |
| 2026-05-09 19:51 | -12.73243 | 34.65892 | 33994 ft | 452 kts | 218° |
| 2026-05-09 19:52 | -12.78240 | 34.62043 | 33994 ft | 451 kts | 218° |
| 2026-05-09 19:52 | -12.83254 | 34.58173 | 33994 ft | 450 kts | 218° |
| 2026-05-09 19:53 | -12.88256 | 34.54311 | 33994 ft | 450 kts | 218° |
| 2026-05-09 19:53 | -12.93271 | 34.50447 | 33994 ft | 450 kts | 218° |
| 2026-05-09 19:54 | -12.98247 | 34.46604 | 33994 ft | 450 kts | 218° |
| 2026-05-09 19:54 | -13.03246 | 34.42737 | 33994 ft | 450 kts | 218° |
| 2026-05-09 19:55 | -13.08253 | 34.38860 | 33994 ft | 450 kts | 218° |
| 2026-05-09 19:56 | -13.15717 | 34.33074 | 33994 ft | 450 kts | 219° |
| 2026-05-09 19:56 | -13.20676 | 34.29126 | 33994 ft | 449 kts | 219° |
| 2026-05-09 19:57 | -13.25622 | 34.25180 | 33994 ft | 449 kts | 219° |
| 2026-05-09 19:57 | -13.30526 | 34.21267 | 33994 ft | 450 kts | 220° |
| 2026-05-09 19:58 | -13.35483 | 34.17307 | 33994 ft | 451 kts | 220° |
| 2026-05-09 19:58 | -13.40410 | 34.13369 | 33994 ft | 450 kts | 220° |
| 2026-05-09 19:59 | -13.45373 | 34.09407 | 33994 ft | 450 kts | 220° |
| 2026-05-09 19:59 | -13.50331 | 34.05446 | 33994 ft | 452 kts | 219° |
| 2026-05-09 20:00 | -13.55269 | 34.01501 | 33994 ft | 451 kts | 220° |
| 2026-05-09 20:00 | -13.60209 | 33.97553 | 33994 ft | 450 kts | 220° |
| 2026-05-09 20:01 | -13.65164 | 33.93586 | 33994 ft | 450 kts | 220° |
| 2026-05-09 20:01 | -13.70110 | 33.89621 | 33994 ft | 450 kts | 220° |
| 2026-05-09 20:02 | -13.75051 | 33.85656 | 33994 ft | 450 kts | 220° |
| 2026-05-09 20:02 | -13.80032 | 33.81798 | 33996 ft | 451 kts | 216° |
| 2026-05-09 20:03 | -13.88411 | 33.77456 | 33994 ft | 450 kts | 206° |
| 2026-05-09 20:03 | -13.94147 | 33.74868 | 33994 ft | 450 kts | 206° |
| 2026-05-09 20:04 | -13.99861 | 33.72281 | 33994 ft | 450 kts | 207° |
| 2026-05-09 20:04 | -14.05590 | 33.69681 | 33994 ft | 450 kts | 207° |
| 2026-05-09 20:05 | -14.11324 | 33.67074 | 33994 ft | 450 kts | 207° |
| 2026-05-09 20:05 | -14.17065 | 33.64467 | 33994 ft | 450 kts | 207° |
| 2026-05-09 20:06 | -14.22760 | 33.61877 | 33994 ft | 449 kts | 207° |
| 2026-05-09 20:06 | -14.28503 | 33.59265 | 33994 ft | 449 kts | 207° |
| 2026-05-09 20:07 | -14.34215 | 33.56666 | 33994 ft | 454 kts | 207° |
| 2026-05-09 20:07 | -14.40018 | 33.54020 | 33994 ft | 454 kts | 207° |
| 2026-05-09 20:08 | -14.48672 | 33.50069 | 33994 ft | 453 kts | 207° |
| 2026-05-09 20:09 | -14.54406 | 33.47450 | 33994 ft | 453 kts | 207° |
| 2026-05-09 20:09 | -14.60191 | 33.44817 | 33994 ft | 453 kts | 207° |
| 2026-05-09 20:10 | -14.65985 | 33.42185 | 33994 ft | 453 kts | 207° |
| 2026-05-09 20:10 | -14.71722 | 33.39579 | 33994 ft | 453 kts | 207° |
| 2026-05-09 20:11 | -14.77502 | 33.36954 | 33994 ft | 453 kts | 207° |
| 2026-05-09 20:11 | -14.83285 | 33.34322 | 33994 ft | 454 kts | 208° |
| 2026-05-09 20:12 | -14.89085 | 33.31679 | 33994 ft | 454 kts | 208° |
| 2026-05-09 20:12 | -14.94836 | 33.29057 | 33994 ft | 454 kts | 208° |
| 2026-05-09 20:13 | -15.00620 | 33.26413 | 33994 ft | 454 kts | 208° |
| 2026-05-09 20:13 | -15.06361 | 33.23675 | 33994 ft | 454 kts | 209° |
| 2026-05-09 20:14 | -15.12067 | 33.20944 | 33994 ft | 454 kts | 209° |
| 2026-05-09 20:14 | -15.17841 | 33.18175 | 33993 ft | 460 kts | 208° |
| 2026-05-09 20:15 | -15.23674 | 33.15392 | 33996 ft | 460 kts | 209° |
| 2026-05-09 20:15 | -15.29450 | 33.12626 | 33994 ft | 454 kts | 209° |
| 2026-05-09 20:16 | -15.35200 | 33.09879 | 33994 ft | 455 kts | 209° |
| 2026-05-09 20:16 | -15.40912 | 33.07143 | 33994 ft | 455 kts | 209° |
| 2026-05-09 20:17 | -15.46666 | 33.04383 | 33994 ft | 455 kts | 209° |
| 2026-05-09 20:17 | -15.52382 | 33.01640 | 33994 ft | 455 kts | 209° |
| 2026-05-09 20:18 | -15.58127 | 32.98881 | 33994 ft | 455 kts | 209° |
| 2026-05-09 20:18 | -15.63852 | 32.96076 | 33994 ft | 454 kts | 210° |
| 2026-05-09 20:19 | -15.69548 | 32.93276 | 33994 ft | 454 kts | 210° |
| 2026-05-09 20:19 | -15.75259 | 32.90466 | 33994 ft | 454 kts | 210° |
| 2026-05-09 20:20 | -15.80973 | 32.87653 | 33994 ft | 455 kts | 210° |
| 2026-05-09 20:20 | -15.86714 | 32.84824 | 33994 ft | 456 kts | 210° |
| 2026-05-09 20:21 | -15.92447 | 32.82002 | 33994 ft | 456 kts | 210° |
| 2026-05-09 20:21 | -15.98188 | 32.79175 | 33994 ft | 456 kts | 210° |
| 2026-05-09 20:22 | -16.03872 | 32.76372 | 33994 ft | 455 kts | 210° |
| 2026-05-09 20:22 | -16.09655 | 32.73518 | 33994 ft | 462 kts | 210° |
| 2026-05-09 20:23 | -16.15504 | 32.70629 | 33995 ft | 469 kts | 210° |
| 2026-05-09 20:23 | -16.21449 | 32.67691 | 33994 ft | 475 kts | 210° |
| 2026-05-09 20:24 | -16.27417 | 32.64744 | 33994 ft | 478 kts | 210° |
| 2026-05-09 20:24 | -16.33426 | 32.61770 | 33994 ft | 477 kts | 210° |
| 2026-05-09 20:25 | -16.39422 | 32.58797 | 33994 ft | 477 kts | 210° |
| 2026-05-09 20:25 | -16.45417 | 32.55823 | 33994 ft | 477 kts | 210° |
| 2026-05-09 20:26 | -16.51379 | 32.52871 | 33994 ft | 477 kts | 209° |
| 2026-05-09 20:26 | -16.57443 | 32.50011 | 33994 ft | 478 kts | 208° |
| 2026-05-09 20:27 | -16.63495 | 32.47159 | 33994 ft | 477 kts | 208° |
| 2026-05-09 20:27 | -16.69555 | 32.44296 | 33994 ft | 477 kts | 208° |
| 2026-05-09 20:28 | -16.75572 | 32.41450 | 33994 ft | 477 kts | 208° |
| 2026-05-09 20:28 | -16.80620 | 32.39059 | 33994 ft | 477 kts | 208° |
| 2026-05-09 20:29 | -16.90704 | 32.34291 | 33990 ft | 479 kts | 208° |
| 2026-05-09 20:29 | -16.96815 | 32.31396 | 33997 ft | 483 kts | 208° |
| 2026-05-09 20:30 | -17.02914 | 32.28498 | 33993 ft | 478 kts | 209° |
| 2026-05-09 20:30 | -17.08967 | 32.25621 | 33994 ft | 477 kts | 209° |
| 2026-05-09 20:31 | -17.14994 | 32.22779 | 33994 ft | 478 kts | 208° |
| 2026-05-09 20:31 | -17.21058 | 32.19932 | 33994 ft | 476 kts | 209° |
| 2026-05-09 20:32 | -17.27082 | 32.17100 | 33994 ft | 477 kts | 209° |
| 2026-05-09 20:32 | -17.33132 | 32.14253 | 33994 ft | 477 kts | 209° |
| 2026-05-09 20:33 | -17.39162 | 32.11413 | 33994 ft | 476 kts | 209° |
| 2026-05-09 20:33 | -17.45223 | 32.08560 | 33994 ft | 477 kts | 209° |
| 2026-05-09 20:34 | -17.50266 | 32.06186 | 33994 ft | 477 kts | 209° |
| 2026-05-09 20:34 | -17.57303 | 32.02869 | 33994 ft | 477 kts | 209° |
| 2026-05-09 20:35 | -17.62343 | 32.00491 | 33994 ft | 476 kts | 209° |
| 2026-05-09 20:35 | -17.68398 | 31.97631 | 33994 ft | 476 kts | 209° |
| 2026-05-09 20:36 | -17.74437 | 31.94777 | 33994 ft | 476 kts | 209° |
| 2026-05-09 20:36 | -17.80493 | 31.91912 | 33994 ft | 476 kts | 209° |
| 2026-05-09 20:37 | -17.86538 | 31.89050 | 33994 ft | 476 kts | 209° |
| 2026-05-09 20:37 | -17.92564 | 31.86196 | 33994 ft | 477 kts | 209° |
| 2026-05-09 20:38 | -17.98624 | 31.83327 | 33994 ft | 476 kts | 209° |
| 2026-05-09 20:38 | -18.04630 | 31.80476 | 33994 ft | 476 kts | 209° |
| 2026-05-09 20:39 | -18.10671 | 31.77605 | 33994 ft | 476 kts | 209° |
| 2026-05-09 20:39 | -18.16735 | 31.74721 | 33994 ft | 476 kts | 209° |
| 2026-05-09 20:40 | -18.22741 | 31.71870 | 33994 ft | 476 kts | 209° |
| 2026-05-09 20:40 | -18.28783 | 31.69030 | 33994 ft | 474 kts | 209° |
| 2026-05-09 20:41 | -18.34807 | 31.66194 | 33994 ft | 475 kts | 209° |
| 2026-05-09 20:41 | -18.40840 | 31.63350 | 33994 ft | 475 kts | 209° |
| 2026-05-09 20:42 | -18.46881 | 31.60501 | 33994 ft | 475 kts | 209° |
| 2026-05-09 20:42 | -18.52870 | 31.57673 | 33994 ft | 475 kts | 209° |
| 2026-05-09 20:43 | -18.58910 | 31.54827 | 33994 ft | 475 kts | 209° |
| 2026-05-09 20:43 | -18.64944 | 31.51978 | 33994 ft | 475 kts | 209° |
| 2026-05-09 20:44 | -18.70940 | 31.49143 | 33988 ft | 475 kts | 209° |
| 2026-05-09 20:44 | -18.77032 | 31.46257 | 34001 ft | 481 kts | 208° |
| 2026-05-09 20:45 | -18.83124 | 31.43382 | 33994 ft | 477 kts | 209° |
| 2026-05-09 20:45 | -18.89126 | 31.40536 | 33994 ft | 474 kts | 209° |
| 2026-05-09 20:46 | -18.95160 | 31.37671 | 33994 ft | 475 kts | 209° |
| 2026-05-09 20:46 | -19.01154 | 31.34823 | 33994 ft | 474 kts | 209° |
| 2026-05-09 20:47 | -19.07175 | 31.31960 | 33994 ft | 474 kts | 209° |
| 2026-05-09 20:47 | -19.13219 | 31.29125 | 33994 ft | 475 kts | 209° |
| 2026-05-09 20:48 | -19.19261 | 31.26279 | 33994 ft | 475 kts | 209° |
| 2026-05-09 20:48 | -19.25284 | 31.23441 | 33994 ft | 474 kts | 209° |
| 2026-05-09 20:49 | -19.31292 | 31.20609 | 33994 ft | 470 kts | 209° |
| 2026-05-09 20:49 | -19.37282 | 31.17784 | 33994 ft | 471 kts | 209° |
| 2026-05-09 20:50 | -19.43237 | 31.14979 | 33994 ft | 471 kts | 209° |
| 2026-05-09 20:50 | -19.49224 | 31.12158 | 33994 ft | 471 kts | 209° |
| 2026-05-09 20:51 | -19.55218 | 31.09330 | 33994 ft | 471 kts | 209° |
| 2026-05-09 20:51 | -19.61205 | 31.06502 | 33994 ft | 471 kts | 209° |
| 2026-05-09 20:52 | -19.67161 | 31.03685 | 33994 ft | 471 kts | 209° |
| 2026-05-09 20:52 | -19.73153 | 31.00849 | 33994 ft | 471 kts | 209° |
| 2026-05-09 20:53 | -19.79157 | 30.98009 | 33994 ft | 471 kts | 209° |
| 2026-05-09 20:53 | -19.85143 | 30.95173 | 33994 ft | 471 kts | 209° |
| 2026-05-09 20:54 | -19.91094 | 30.92347 | 33994 ft | 471 kts | 209° |
| 2026-05-09 20:54 | -19.97081 | 30.89502 | 33994 ft | 471 kts | 209° |
| 2026-05-09 20:55 | -20.03018 | 30.86679 | 33994 ft | 467 kts | 209° |
| 2026-05-09 20:55 | -20.08779 | 30.83545 | 33994 ft | 462 kts | 216° |
| 2026-05-09 20:56 | -20.16981 | 30.78152 | 33994 ft | 461 kts | 217° |
| 2026-05-09 20:57 | -20.22405 | 30.74570 | 33994 ft | 461 kts | 217° |
| 2026-05-09 20:57 | -20.27874 | 30.70972 | 33994 ft | 462 kts | 217° |
| 2026-05-09 20:58 | -20.33315 | 30.67404 | 33994 ft | 460 kts | 217° |
| 2026-05-09 20:58 | -20.38772 | 30.63833 | 33994 ft | 460 kts | 217° |
| 2026-05-09 20:59 | -20.44243 | 30.60254 | 33994 ft | 460 kts | 217° |
| 2026-05-09 20:59 | -20.49685 | 30.56691 | 33993 ft | 464 kts | 217° |
| 2026-05-09 21:00 | -20.57981 | 30.51253 | 33994 ft | 463 kts | 217° |
| 2026-05-09 21:00 | -20.63440 | 30.47671 | 33994 ft | 459 kts | 217° |
| 2026-05-09 21:01 | -20.68887 | 30.44093 | 33994 ft | 459 kts | 217° |
| 2026-05-09 21:02 | -20.77003 | 30.38758 | 33994 ft | 458 kts | 217° |
| 2026-05-09 21:02 | -20.82426 | 30.35190 | 33994 ft | 455 kts | 218° |
| 2026-05-09 21:03 | -20.87817 | 30.31638 | 33994 ft | 454 kts | 218° |
| 2026-05-09 21:03 | -20.93170 | 30.28108 | 33994 ft | 454 kts | 218° |
| 2026-05-09 21:04 | -20.98565 | 30.24548 | 33994 ft | 454 kts | 218° |
| 2026-05-09 21:04 | -21.03955 | 30.20989 | 33994 ft | 455 kts | 218° |
| 2026-05-09 21:05 | -21.09310 | 30.17449 | 33994 ft | 455 kts | 218° |
| 2026-05-09 21:05 | -21.14700 | 30.13882 | 33994 ft | 455 kts | 218° |
| 2026-05-09 21:06 | -21.20088 | 30.10315 | 33994 ft | 454 kts | 218° |
| 2026-05-09 21:06 | -21.25442 | 30.06767 | 33994 ft | 455 kts | 218° |
| 2026-05-09 21:07 | -21.30829 | 30.03195 | 33994 ft | 454 kts | 218° |
| 2026-05-09 21:07 | -21.36195 | 29.99632 | 33994 ft | 453 kts | 218° |
| 2026-05-09 21:08 | -21.41571 | 29.96060 | 33994 ft | 453 kts | 218° |
| 2026-05-09 21:08 | -21.46894 | 29.92519 | 33994 ft | 453 kts | 218° |
| 2026-05-09 21:09 | -21.52258 | 29.88949 | 33994 ft | 453 kts | 218° |
| 2026-05-09 21:09 | -21.57621 | 29.85375 | 33994 ft | 453 kts | 218° |
| 2026-05-09 21:10 | -21.62982 | 29.81801 | 33994 ft | 453 kts | 218° |
| 2026-05-09 21:10 | -21.68313 | 29.78243 | 33994 ft | 453 kts | 219° |
| 2026-05-09 21:11 | -21.73677 | 29.74660 | 33994 ft | 453 kts | 219° |
| 2026-05-09 21:12 | -21.87135 | 29.65656 | 33994 ft | 457 kts | 219° |
| 2026-05-09 21:12 | -21.92515 | 29.62057 | 33994 ft | 457 kts | 219° |
| 2026-05-09 21:13 | -21.97925 | 29.58431 | 33994 ft | 457 kts | 219° |
| 2026-05-09 21:13 | -22.03332 | 29.54799 | 33994 ft | 457 kts | 219° |
| 2026-05-09 21:14 | -22.08733 | 29.51165 | 33994 ft | 457 kts | 219° |
| 2026-05-09 21:14 | -22.14086 | 29.47562 | 34044 ft | 456 kts | 219° |
| 2026-05-09 21:15 | -22.19542 | 29.44014 | 34136 ft | 460 kts | 216° |
| 2026-05-09 21:15 | -22.25466 | 29.41182 | 34175 ft | 471 kts | 205° |
| 2026-05-09 21:16 | -22.31907 | 29.39506 | 34194 ft | 479 kts | 199° |
| 2026-05-09 21:16 | -22.38415 | 29.38184 | 34200 ft | 479 kts | 198° |
| 2026-05-09 21:17 | -22.44977 | 29.36850 | 34201 ft | 479 kts | 198° |
| 2026-05-09 21:17 | -22.51526 | 29.35515 | 34201 ft | 479 kts | 198° |
| 2026-05-09 21:18 | -22.58082 | 29.34177 | 34201 ft | 479 kts | 198° |
| 2026-05-09 21:18 | -22.64632 | 29.32843 | 34201 ft | 479 kts | 198° |
| 2026-05-09 21:19 | -22.77710 | 29.30171 | 34201 ft | 479 kts | 198° |
| 2026-05-09 21:20 | -22.84264 | 29.28830 | 34201 ft | 479 kts | 199° |
| 2026-05-09 21:20 | -22.89721 | 29.27711 | 34201 ft | 479 kts | 199° |
| 2026-05-09 21:21 | -22.96222 | 29.26376 | 34220 ft | 476 kts | 199° |
| 2026-05-09 21:21 | -23.02740 | 29.25037 | 34229 ft | 477 kts | 199° |
| 2026-05-09 21:22 | -23.09274 | 29.23694 | 34230 ft | 477 kts | 199° |
| 2026-05-09 21:22 | -23.15776 | 29.22355 | 34230 ft | 477 kts | 199° |
| 2026-05-09 21:23 | -23.22297 | 29.21012 | 34230 ft | 477 kts | 199° |
| 2026-05-09 21:23 | -23.28831 | 29.19665 | 34230 ft | 477 kts | 199° |
| 2026-05-09 21:24 | -23.35315 | 29.18326 | 34230 ft | 477 kts | 199° |
| 2026-05-09 21:24 | -23.41850 | 29.16975 | 34230 ft | 477 kts | 199° |
| 2026-05-09 21:25 | -23.48385 | 29.15623 | 34230 ft | 477 kts | 199° |
| 2026-05-09 21:25 | -23.54885 | 29.14277 | 34230 ft | 477 kts | 199° |
| 2026-05-09 21:26 | -23.61373 | 29.12932 | 34230 ft | 477 kts | 199° |
| 2026-05-09 21:26 | -23.67905 | 29.11577 | 34230 ft | 477 kts | 199° |
| 2026-05-09 21:27 | -23.74430 | 29.10222 | 34230 ft | 477 kts | 199° |
| 2026-05-09 21:27 | -23.80913 | 29.08875 | 34230 ft | 477 kts | 199° |
| 2026-05-09 21:28 | -23.87452 | 29.07516 | 34230 ft | 478 kts | 200° |
| 2026-05-09 21:28 | -23.93998 | 29.06151 | 34230 ft | 478 kts | 200° |
| 2026-05-09 21:29 | -24.00536 | 29.04786 | 34230 ft | 478 kts | 200° |
| 2026-05-09 21:29 | -24.07047 | 29.03426 | 34229 ft | 474 kts | 199° |
| 2026-05-09 21:30 | -24.13514 | 29.02081 | 34231 ft | 478 kts | 200° |
| 2026-05-09 21:30 | -24.20064 | 29.00719 | 34230 ft | 478 kts | 200° |
| 2026-05-09 21:31 | -24.26622 | 28.99353 | 34230 ft | 478 kts | 200° |
| 2026-05-09 21:31 | -24.33123 | 28.97998 | 34230 ft | 479 kts | 200° |
| 2026-05-09 21:32 | -24.39686 | 28.96627 | 34230 ft | 479 kts | 200° |
| 2026-05-09 21:32 | -24.46252 | 28.95258 | 34230 ft | 479 kts | 200° |
| 2026-05-09 21:33 | -24.52767 | 28.93899 | 34230 ft | 479 kts | 200° |
| 2026-05-09 21:33 | -24.59181 | 28.92558 | 34197 ft | 455 kts | 200° |
| 2026-05-09 21:34 | -24.65290 | 28.91280 | 34171 ft | 441 kts | 201° |
| 2026-05-09 21:34 | -24.68292 | 28.90652 | 33966 ft | 437 kts | 201° |
| 2026-05-09 21:34 | -24.71251 | 28.90032 | 33705 ft | 429 kts | 201° |
| 2026-05-09 21:35 | -24.74175 | 28.89419 | 33328 ft | 425 kts | 201° |
| 2026-05-09 21:35 | -24.77078 | 28.88809 | 32928 ft | 423 kts | 201° |
| 2026-05-09 21:35 | -24.79960 | 28.88203 | 32526 ft | 420 kts | 201° |
| 2026-05-09 21:35 | -24.82826 | 28.87600 | 32119 ft | 418 kts | 201° |
| 2026-05-09 21:36 | -24.85672 | 28.87001 | 31723 ft | 415 kts | 201° |
| 2026-05-09 21:36 | -24.88500 | 28.86406 | 31334 ft | 413 kts | 201° |
| 2026-05-09 21:36 | -24.91285 | 28.85820 | 30955 ft | 410 kts | 201° |
| 2026-05-09 21:36 | -24.94076 | 28.85231 | 30577 ft | 407 kts | 200° |
| 2026-05-09 21:37 | -24.96858 | 28.84646 | 30201 ft | 405 kts | 200° |
| 2026-05-09 21:37 | -24.99611 | 28.84065 | 29825 ft | 403 kts | 200° |
| 2026-05-09 21:37 | -25.02360 | 28.83485 | 29448 ft | 401 kts | 200° |
| 2026-05-09 21:37 | -25.05098 | 28.82907 | 29074 ft | 398 kts | 200° |
| 2026-05-09 21:38 | -25.07799 | 28.82336 | 28751 ft | 394 kts | 200° |
| 2026-05-09 21:38 | -25.10495 | 28.81766 | 28395 ft | 391 kts | 200° |
| 2026-05-09 21:38 | -25.13135 | 28.81208 | 28038 ft | 389 kts | 200° |
| 2026-05-09 21:38 | -25.15785 | 28.80649 | 27668 ft | 387 kts | 199° |
| 2026-05-09 21:39 | -25.18424 | 28.80093 | 27298 ft | 385 kts | 199° |
| 2026-05-09 21:39 | -25.21052 | 28.79538 | 26930 ft | 383 kts | 199° |
| 2026-05-09 21:39 | -25.23674 | 28.78983 | 26570 ft | 380 kts | 199° |
| 2026-05-09 21:39 | -25.26242 | 28.78439 | 26221 ft | 378 kts | 199° |
| 2026-05-09 21:40 | -25.28811 | 28.77895 | 25861 ft | 376 kts | 199° |
| 2026-05-09 21:40 | -25.31388 | 28.77348 | 25392 ft | 377 kts | 199° |
| 2026-05-09 21:40 | -25.33962 | 28.76801 | 24974 ft | 376 kts | 198° |
| 2026-05-09 21:40 | -25.36531 | 28.76256 | 24613 ft | 374 kts | 198° |
| 2026-05-09 21:41 | -25.39075 | 28.75715 | 24259 ft | 371 kts | 198° |
| 2026-05-09 21:41 | -25.41612 | 28.75176 | 23906 ft | 369 kts | 198° |
| 2026-05-09 21:41 | -25.44111 | 28.74601 | 23551 ft | 363 kts | 202° |
| 2026-05-09 21:41 | -25.46462 | 28.73695 | 23233 ft | 352 kts | 212° |
| 2026-05-09 21:42 | -25.48587 | 28.72470 | 22894 ft | 344 kts | 218° |
| 2026-05-09 21:42 | -25.50587 | 28.71057 | 22537 ft | 340 kts | 221° |
| 2026-05-09 21:42 | -25.52543 | 28.69591 | 22184 ft | 338 kts | 221° |
| 2026-05-09 21:42 | -25.54485 | 28.68146 | 21833 ft | 336 kts | 221° |
| 2026-05-09 21:43 | -25.56427 | 28.66711 | 21485 ft | 334 kts | 220° |
| 2026-05-09 21:43 | -25.58358 | 28.65289 | 21153 ft | 331 kts | 220° |
| 2026-05-09 21:43 | -25.60270 | 28.63880 | 20808 ft | 330 kts | 220° |
| 2026-05-09 21:43 | -25.62176 | 28.62474 | 20457 ft | 328 kts | 220° |
| 2026-05-09 21:44 | -25.64078 | 28.61070 | 20127 ft | 326 kts | 220° |
| 2026-05-09 21:44 | -25.65926 | 28.59703 | 19805 ft | 323 kts | 220° |
| 2026-05-09 21:44 | -25.67810 | 28.58317 | 19414 ft | 323 kts | 222° |
| 2026-05-09 21:44 | -25.69674 | 28.56932 | 19071 ft | 321 kts | 222° |
| 2026-05-09 21:45 | -25.71519 | 28.55553 | 18787 ft | 318 kts | 220° |
| 2026-05-09 21:45 | -25.73353 | 28.54197 | 18450 ft | 317 kts | 220° |
| 2026-05-09 21:45 | -25.75240 | 28.52915 | 18083 ft | 320 kts | 214° |
| 2026-05-09 21:45 | -25.77311 | 28.51954 | 17744 ft | 325 kts | 205° |
| 2026-05-09 21:46 | -25.79473 | 28.51273 | 17409 ft | 327 kts | 201° |
| 2026-05-09 21:46 | -25.81688 | 28.50699 | 17077 ft | 326 kts | 199° |
| 2026-05-09 21:46 | -25.83902 | 28.50156 | 16758 ft | 324 kts | 199° |
| 2026-05-09 21:46 | -25.86106 | 28.49613 | 16439 ft | 323 kts | 199° |
| 2026-05-09 21:47 | -25.88299 | 28.49068 | 16113 ft | 321 kts | 199° |
| 2026-05-09 21:47 | -25.90452 | 28.48529 | 15800 ft | 320 kts | 199° |
| 2026-05-09 21:47 | -25.92617 | 28.47985 | 15482 ft | 318 kts | 199° |
| 2026-05-09 21:47 | -25.94768 | 28.47443 | 15162 ft | 317 kts | 199° |
| 2026-05-09 21:48 | -25.96859 | 28.46914 | 14642 ft | 323 kts | 199° |
| 2026-05-09 21:48 | -25.99083 | 28.46351 | 14018 ft | 331 kts | 199° |
| 2026-05-09 21:48 | -26.01347 | 28.45776 | 13395 ft | 338 kts | 198° |
| 2026-05-09 21:48 | -26.03671 | 28.45186 | 12768 ft | 344 kts | 198° |
| 2026-05-09 21:49 | -26.06001 | 28.44593 | 12149 ft | 350 kts | 198° |
| 2026-05-09 21:49 | -26.08401 | 28.43983 | 11521 ft | 355 kts | 198° |
| 2026-05-09 21:49 | -26.10831 | 28.43364 | 10894 ft | 359 kts | 197° |
| 2026-05-09 21:49 | -26.13253 | 28.42748 | 10531 ft | 353 kts | 197° |
| 2026-05-09 21:50 | -26.15598 | 28.42152 | 10276 ft | 339 kts | 197° |
| 2026-05-09 21:50 | -26.17855 | 28.41577 | 10022 ft | 326 kts | 197° |
| 2026-05-09 21:50 | -26.22139 | 28.40486 | 9517 ft | 306 kts | 197° |
| 2026-05-09 21:51 | -26.24158 | 28.39972 | 9266 ft | 297 kts | 197° |
| 2026-05-09 21:51 | -26.26145 | 28.39465 | 9013 ft | 288 kts | 197° |
| 2026-05-09 21:51 | -26.28072 | 28.38973 | 8760 ft | 280 kts | 197° |
| 2026-05-09 21:51 | -26.29954 | 28.38492 | 8506 ft | 273 kts | 197° |
| 2026-05-09 21:52 | -26.31785 | 28.38025 | 8253 ft | 266 kts | 197° |
| 2026-05-09 21:52 | -26.33570 | 28.37566 | 7999 ft | 260 kts | 197° |
| 2026-05-09 21:52 | -26.35297 | 28.37081 | 7920 ft | 253 kts | 198° |
| 2026-05-09 21:52 | -26.36992 | 28.36595 | 7912 ft | 250 kts | 198° |
| 2026-05-09 21:53 | -26.38661 | 28.36106 | 7911 ft | 246 kts | 202° |
| 2026-05-09 21:53 | -26.40019 | 28.35050 | 7868 ft | 235 kts | 239° |
| 2026-05-09 21:53 | -26.40485 | 28.33374 | 7905 ft | 226 kts | 275° |
| 2026-05-09 21:54 | -26.39387 | 28.30162 | 7938 ft | 224 kts | 302° |
| 2026-05-09 21:54 | -26.38604 | 28.28686 | 7925 ft | 223 kts | 302° |
| 2026-05-09 21:54 | -26.37803 | 28.27201 | 7920 ft | 222 kts | 302° |
| 2026-05-09 21:54 | -26.37004 | 28.25718 | 7920 ft | 222 kts | 302° |
| 2026-05-09 21:55 | -26.36211 | 28.24246 | 7919 ft | 222 kts | 302° |
| 2026-05-09 21:55 | -26.35414 | 28.22767 | 7918 ft | 221 kts | 303° |
| 2026-05-09 21:55 | -26.34631 | 28.21315 | 7919 ft | 221 kts | 303° |
| 2026-05-09 21:55 | -26.33541 | 28.20144 | 7884 ft | 219 kts | 336° |
| 2026-05-09 21:56 | -26.32028 | 28.19915 | 7931 ft | 224 kts | 3° |
| 2026-05-09 21:56 | -26.30495 | 28.20337 | 7933 ft | 229 kts | 15° |
| 2026-05-09 21:56 | -26.28999 | 28.20887 | 7921 ft | 227 kts | 13° |
| 2026-05-09 21:56 | -26.27507 | 28.21380 | 7905 ft | 217 kts | 11° |
| 2026-05-09 21:57 | -26.26099 | 28.21824 | 7893 ft | 203 kts | 11° |
| 2026-05-09 21:57 | -26.24783 | 28.22235 | 7914 ft | 187 kts | 11° |
| 2026-05-09 21:57 | -26.23590 | 28.22607 | 7860 ft | 171 kts | 11° |
| 2026-05-09 21:57 | -26.22454 | 28.22965 | 7542 ft | 168 kts | 11° |
| 2026-05-09 21:58 | -26.21344 | 28.23292 | 7220 ft | 164 kts | 11° |
| 2026-05-09 21:58 | -26.20240 | 28.23653 | 6827 ft | 167 kts | 14° |
| 2026-05-09 21:58 | -26.19160 | 28.24032 | 6579 ft | 162 kts | 14° |
| 2026-05-09 21:58 | -26.18089 | 28.24385 | 6239 ft | 160 kts | 13° |
| 2026-05-09 21:59 | -26.17037 | 28.24691 | 5905 ft | 156 kts | 10° |
| 2026-05-09 21:59 | -26.16002 | 28.24964 | 5610 ft | 147 kts | 14° |
| 2026-05-09 21:59 | -26.15134 | 28.25225 | 5566 ft | 95 kts | 13° |
| 2026-05-09 21:59 | -26.14748 | 28.25346 | 5566 ft | 31 kts | 13° |
| 2026-05-09 22:00 | -26.14660 | 28.25370 | 5566 ft | 5 kts | 7° |
| 2026-05-09 22:00 | -26.14625 | 28.25360 | 5566 ft | 5 kts | 333° |
| 2026-05-09 22:00 | -26.14591 | 28.25329 | 5566 ft | 7 kts | 315° |
| 2026-05-09 22:00 | -26.14550 | 28.25288 | 5566 ft | 9 kts | 320° |
| 2026-05-09 22:01 | -26.14510 | 28.25251 | 5566 ft | 7 kts | 320° |
| 2026-05-09 22:01 | -26.14470 | 28.25209 | 5566 ft | 9 kts | 316° |
| 2026-05-09 22:01 | -26.14425 | 28.25157 | 5566 ft | 10 kts | 314° |
| 2026-05-09 22:01 | -26.14374 | 28.25098 | 5566 ft | 11 kts | 315° |
| 2026-05-09 22:02 | -26.14316 | 28.25036 | 5566 ft | 12 kts | 316° |
| 2026-05-09 22:02 | -26.14253 | 28.24969 | 5566 ft | 13 kts | 316° |
| 2026-05-09 22:02 | -26.14185 | 28.24895 | 5566 ft | 14 kts | 316° |
| 2026-05-09 22:02 | -26.14112 | 28.24818 | 5566 ft | 15 kts | 316° |
| 2026-05-09 22:03 | -26.14036 | 28.24736 | 5566 ft | 16 kts | 316° |
| 2026-05-09 22:03 | -26.13956 | 28.24650 | 5566 ft | 16 kts | 316° |
| 2026-05-09 22:03 | -26.13874 | 28.24563 | 5566 ft | 16 kts | 316° |
| 2026-05-09 22:03 | -26.13793 | 28.24477 | 5566 ft | 16 kts | 316° |
| 2026-05-09 22:04 | -26.13710 | 28.24390 | 5566 ft | 16 kts | 316° |
| 2026-05-09 22:04 | -26.13655 | 28.24333 | 5566 ft | 16 kts | 316° |
| 2026-05-09 22:04 | -26.13563 | 28.24232 | 5566 ft | 16 kts | 315° |
| 2026-05-09 22:04 | -26.13482 | 28.24143 | 5566 ft | 16 kts | 315° |
| 2026-05-09 22:05 | -26.13403 | 28.24051 | 5566 ft | 16 kts | 314° |
| 2026-05-09 22:05 | -26.13343 | 28.23984 | 5566 ft | 8 kts | 315° |
| 2026-05-09 22:05 | -26.13331 | 28.23970 | 5566 ft | 0 kts | 315° |
| 2026-05-09 22:06 | -26.13330 | 28.23970 | 5566 ft | 0 kts | 315° |
| 2026-05-09 22:07 | -26.13321 | 28.23960 | 5566 ft | 3 kts | 315° |
| 2026-05-09 22:08 | -26.13299 | 28.23936 | 5566 ft | 6 kts | 315° |
| 2026-05-09 22:08 | -26.13266 | 28.23900 | 5566 ft | 7 kts | 315° |
| 2026-05-09 22:08 | -26.13225 | 28.23855 | 5566 ft | 9 kts | 315° |
| 2026-05-09 22:08 | -26.13177 | 28.23803 | 5566 ft | 8 kts | 315° |
| 2026-05-09 22:09 | -26.13138 | 28.23758 | 5566 ft | 5 kts | 295° |
| 2026-05-09 22:09 | -26.13138 | 28.23733 | 5566 ft | 5 kts | 268° |
| 2026-05-09 22:09 | -26.13137 | 28.23685 | 5566 ft | 8 kts | 276° |
| 2026-05-09 22:09 | -26.13130 | 28.23618 | 5566 ft | 10 kts | 277° |
| 2026-05-09 22:10 | -26.13121 | 28.23536 | 5566 ft | 12 kts | 276° |
| 2026-05-09 22:10 | -26.13114 | 28.23457 | 5566 ft | 6 kts | 275° |
| 2026-05-09 22:10 | -26.13114 | 28.23434 | 5566 ft | 4 kts | 263° |
| 2026-05-09 22:10 | -26.13139 | 28.23418 | 5566 ft | 6 kts | 189° |
| 2026-05-09 22:11 | -26.13196 | 28.23408 | 5566 ft | 10 kts | 189° |
| 2026-05-09 22:11 | -26.13223 | 28.23403 | 5566 ft | 2 kts | 189° |
| 2026-05-09 22:11 | -26.13235 | 28.23394 | 5566 ft | 1 kts | 239° |
| 2026-05-09 22:11 | -26.13235 | 28.23379 | 5566 ft | 3 kts | 276° |
| 2026-05-09 22:12 | -26.13232 | 28.23344 | 5566 ft | 3 kts | 275° |
| 2026-05-09 22:12 | -26.13230 | 28.23321 | 5566 ft | 0 kts | 275° |
| 2026-05-09 22:13 | -26.13230 | 28.23320 | 5566 ft | 0 kts | 275° |